sensor_id;sensor_type;location;lat;lon;timestamp;P1;durP1;ratioP1;P2;durP2;ratioP2
71462;SDS011;59266;52.608;13.260;2023-02-03T00:01:41;11.38;;;3.28;;
71462;SDS011;59266;52.608;13.260;2023-02-03T00:04:10;11.95;;;3.17;;
71462;SDS011;59266;52.608;13.260;2023-02-03T00:06:37;14.88;;;3.10;;
71462;SDS011;59266;52.608;13.260;2023-02-03T00:09:05;8.18;;;2.90;;
71462;SDS011;59266;52.608;13.260;2023-02-03T00:11:31;9.05;;;3.00;;
71462;SDS011;59266;52.608;13.260;2023-02-03T00:13:58;9.73;;;3.28;;
71462;SDS011;59266;52.608;13.260;2023-02-03T00:16:25;10.77;;;2.95;;
71462;SDS011;59266;52.608;13.260;2023-02-03T00:18:51;19.13;;;3.53;;
71462;SDS011;59266;52.608;13.260;2023-02-03T00:21:18;14.60;;;2.92;;
71462;SDS011;59266;52.608;13.260;2023-02-03T00:23:45;12.82;;;3.25;;
71462;SDS011;59266;52.608;13.260;2023-02-03T00:26:13;11.50;;;2.92;;
71462;SDS011;59266;52.608;13.260;2023-02-03T00:28:41;14.40;;;3.28;;
71462;SDS011;59266;52.608;13.260;2023-02-03T00:31:18;14.15;;;3.25;;
71462;SDS011;59266;52.608;13.260;2023-02-03T00:33:47;18.80;;;3.55;;
71462;SDS011;59266;52.608;13.260;2023-02-03T00:36:18;11.63;;;3.20;;
71462;SDS011;59266;52.608;13.260;2023-02-03T00:38:48;15.30;;;3.67;;
71462;SDS011;59266;52.608;13.260;2023-02-03T00:41:15;11.40;;;3.33;;
71462;SDS011;59266;52.608;13.260;2023-02-03T00:43:43;8.82;;;2.67;;
71462;SDS011;59266;52.608;13.260;2023-02-03T00:46:12;15.80;;;3.05;;
71462;SDS011;59266;52.608;13.260;2023-02-03T00:48:38;18.77;;;3.67;;
71462;SDS011;59266;52.608;13.260;2023-02-03T00:51:05;17.40;;;2.85;;
71462;SDS011;59266;52.608;13.260;2023-02-03T00:53:32;18.77;;;3.58;;
71462;SDS011;59266;52.608;13.260;2023-02-03T00:55:59;16.00;;;3.80;;
71462;SDS011;59266;52.608;13.260;2023-02-03T00:58:26;17.38;;;3.05;;
71462;SDS011;59266;52.608;13.260;2023-02-03T01:01:03;16.05;;;3.22;;
71462;SDS011;59266;52.608;13.260;2023-02-03T01:03:35;12.20;;;3.50;;
71462;SDS011;59266;52.608;13.260;2023-02-03T01:09:00;30.27;;;4.82;;
71462;SDS011;59266;52.608;13.260;2023-02-03T01:11:28;19.88;;;4.03;;
71462;SDS011;59266;52.608;13.260;2023-02-03T01:13:55;14.27;;;3.60;;
71462;SDS011;59266;52.608;13.260;2023-02-03T01:16:28;26.90;;;4.75;;
71462;SDS011;59266;52.608;13.260;2023-02-03T01:18:56;15.52;;;4.45;;
71462;SDS011;59266;52.608;13.260;2023-02-03T01:21:28;16.58;;;3.95;;
71462;SDS011;59266;52.608;13.260;2023-02-03T01:23:57;16.10;;;3.92;;
71462;SDS011;59266;52.608;13.260;2023-02-03T01:26:26;19.08;;;4.47;;
71462;SDS011;59266;52.608;13.260;2023-02-03T01:28:57;18.65;;;4.60;;
71462;SDS011;59266;52.608;13.260;2023-02-03T01:41:27;18.52;;;4.25;;
71462;SDS011;59266;52.608;13.260;2023-02-03T01:49:52;17.17;;;4.45;;
71462;SDS011;59266;52.608;13.260;2023-02-03T01:52:44;12.23;;;3.60;;
71462;SDS011;59266;52.608;13.260;2023-02-03T01:55:17;17.25;;;3.47;;
71462;SDS011;59266;52.608;13.260;2023-02-03T02:00:48;16.20;;;3.95;;
71462;SDS011;59266;52.608;13.260;2023-02-03T02:03:15;12.13;;;3.45;;
71462;SDS011;59266;52.608;13.260;2023-02-03T02:05:56;13.50;;;4.35;;
71462;SDS011;59266;52.608;13.260;2023-02-03T02:08:30;13.23;;;3.85;;
71462;SDS011;59266;52.608;13.260;2023-02-03T02:10:57;9.85;;;3.33;;
71462;SDS011;59266;52.608;13.260;2023-02-03T02:13:27;11.07;;;3.63;;
71462;SDS011;59266;52.608;13.260;2023-02-03T02:15:58;11.93;;;3.67;;
71462;SDS011;59266;52.608;13.260;2023-02-03T02:18:39;13.77;;;3.53;;
71462;SDS011;59266;52.608;13.260;2023-02-03T02:21:37;10.52;;;3.20;;
71462;SDS011;59266;52.608;13.260;2023-02-03T02:24:20;11.63;;;3.65;;
71462;SDS011;59266;52.608;13.260;2023-02-03T02:30:18;11.00;;;3.60;;
71462;SDS011;59266;52.608;13.260;2023-02-03T02:33:00;12.50;;;3.38;;
71462;SDS011;59266;52.608;13.260;2023-02-03T02:38:21;9.27;;;2.90;;
71462;SDS011;59266;52.608;13.260;2023-02-03T02:41:15;8.32;;;2.60;;
71462;SDS011;59266;52.608;13.260;2023-02-03T02:46:54;7.57;;;2.83;;
71462;SDS011;59266;52.608;13.260;2023-02-03T02:49:26;9.20;;;2.90;;
71462;SDS011;59266;52.608;13.260;2023-02-03T02:52:00;10.30;;;2.90;;
71462;SDS011;59266;52.608;13.260;2023-02-03T02:54:31;9.85;;;3.03;;
71462;SDS011;59266;52.608;13.260;2023-02-03T02:57:01;10.18;;;3.40;;
71462;SDS011;59266;52.608;13.260;2023-02-03T02:59:30;11.15;;;2.75;;
71462;SDS011;59266;52.608;13.260;2023-02-03T03:01:57;11.93;;;2.97;;
71462;SDS011;59266;52.608;13.260;2023-02-03T03:04:25;11.10;;;2.90;;
71462;SDS011;59266;52.608;13.260;2023-02-03T03:10:00;8.10;;;2.60;;
71462;SDS011;59266;52.608;13.260;2023-02-03T03:12:33;9.45;;;2.58;;
71462;SDS011;59266;52.608;13.260;2023-02-03T03:15:07;9.05;;;2.83;;
71462;SDS011;59266;52.608;13.260;2023-02-03T03:17:46;8.98;;;2.67;;
71462;SDS011;59266;52.608;13.260;2023-02-03T03:20:23;9.02;;;2.75;;
71462;SDS011;59266;52.608;13.260;2023-02-03T03:25:42;7.07;;;2.17;;
71462;SDS011;59266;52.608;13.260;2023-02-03T03:29:00;6.38;;;1.90;;
71462;SDS011;59266;52.608;13.260;2023-02-03T03:31:26;9.07;;;3.03;;
71462;SDS011;59266;52.608;13.260;2023-02-03T03:33:53;8.93;;;2.55;;
71462;SDS011;59266;52.608;13.260;2023-02-03T03:36:38;8.32;;;2.72;;
71462;SDS011;59266;52.608;13.260;2023-02-03T03:39:24;8.32;;;3.10;;
71462;SDS011;59266;52.608;13.260;2023-02-03T03:42:13;10.07;;;2.72;;
71462;SDS011;59266;52.608;13.260;2023-02-03T03:45:15;7.13;;;2.38;;
71462;SDS011;59266;52.608;13.260;2023-02-03T03:47:52;8.30;;;2.90;;
71462;SDS011;59266;52.608;13.260;2023-02-03T03:50:39;10.55;;;2.88;;
71462;SDS011;59266;52.608;13.260;2023-02-03T03:53:15;9.50;;;2.55;;
71462;SDS011;59266;52.608;13.260;2023-02-03T03:56:08;8.73;;;2.80;;
71462;SDS011;59266;52.608;13.260;2023-02-03T03:58:49;7.47;;;2.08;;
71462;SDS011;59266;52.608;13.260;2023-02-03T04:01:25;6.53;;;2.40;;
71462;SDS011;59266;52.608;13.260;2023-02-03T04:03:58;7.15;;;2.30;;
71462;SDS011;59266;52.608;13.260;2023-02-03T04:06:31;7.65;;;2.58;;
71462;SDS011;59266;52.608;13.260;2023-02-03T04:09:01;8.98;;;2.90;;
71462;SDS011;59266;52.608;13.260;2023-02-03T04:11:28;8.68;;;2.78;;
71462;SDS011;59266;52.608;13.260;2023-02-03T04:14:15;7.38;;;2.22;;
71462;SDS011;59266;52.608;13.260;2023-02-03T04:17:03;7.72;;;2.50;;
71462;SDS011;59266;52.608;13.260;2023-02-03T04:19:30;9.85;;;3.05;;
71462;SDS011;59266;52.608;13.260;2023-02-03T04:21:59;8.65;;;3.20;;
71462;SDS011;59266;52.608;13.260;2023-02-03T04:27:09;8.98;;;3.17;;
71462;SDS011;59266;52.608;13.260;2023-02-03T04:29:53;9.82;;;3.22;;
71462;SDS011;59266;52.608;13.260;2023-02-03T04:32:20;12.35;;;4.18;;
71462;SDS011;59266;52.608;13.260;2023-02-03T04:34:47;17.83;;;4.68;;
71462;SDS011;59266;52.608;13.260;2023-02-03T04:37:15;14.20;;;4.55;;
71462;SDS011;59266;52.608;13.260;2023-02-03T04:39:42;15.40;;;5.25;;
71462;SDS011;59266;52.608;13.260;2023-02-03T04:42:14;17.80;;;5.07;;
71462;SDS011;59266;52.608;13.260;2023-02-03T04:44:56;16.00;;;5.15;;
71462;SDS011;59266;52.608;13.260;2023-02-03T04:47:22;18.85;;;5.63;;
71462;SDS011;59266;52.608;13.260;2023-02-03T04:49:49;23.00;;;6.60;;
71462;SDS011;59266;52.608;13.260;2023-02-03T04:52:17;23.52;;;6.95;;
71462;SDS011;59266;52.608;13.260;2023-02-03T04:54:44;20.98;;;6.32;;
71462;SDS011;59266;52.608;13.260;2023-02-03T04:57:13;21.25;;;6.93;;
71462;SDS011;59266;52.608;13.260;2023-02-03T04:59:47;22.83;;;6.82;;
71462;SDS011;59266;52.608;13.260;2023-02-03T05:02:14;24.95;;;7.32;;
71462;SDS011;59266;52.608;13.260;2023-02-03T05:04:42;25.38;;;7.72;;
71462;SDS011;59266;52.608;13.260;2023-02-03T05:07:18;27.30;;;7.85;;
71462;SDS011;59266;52.608;13.260;2023-02-03T05:10:09;30.95;;;8.95;;
71462;SDS011;59266;52.608;13.260;2023-02-03T05:12:38;26.85;;;8.45;;
71462;SDS011;59266;52.608;13.260;2023-02-03T05:15:20;38.20;;;10.13;;
71462;SDS011;59266;52.608;13.260;2023-02-03T05:17:46;33.97;;;9.85;;
71462;SDS011;59266;52.608;13.260;2023-02-03T05:20:22;38.20;;;11.18;;
71462;SDS011;59266;52.608;13.260;2023-02-03T05:22:49;45.50;;;11.48;;
71462;SDS011;59266;52.608;13.260;2023-02-03T05:25:17;38.58;;;11.63;;
71462;SDS011;59266;52.608;13.260;2023-02-03T05:27:44;41.33;;;11.27;;
71462;SDS011;59266;52.608;13.260;2023-02-03T05:30:11;39.17;;;11.40;;
71462;SDS011;59266;52.608;13.260;2023-02-03T05:32:38;41.28;;;12.60;;
71462;SDS011;59266;52.608;13.260;2023-02-03T05:35:07;45.90;;;12.88;;
71462;SDS011;59266;52.608;13.260;2023-02-03T05:37:48;47.75;;;13.60;;
71462;SDS011;59266;52.608;13.260;2023-02-03T05:40:17;47.78;;;14.07;;
71462;SDS011;59266;52.608;13.260;2023-02-03T05:43:02;46.65;;;12.45;;
71462;SDS011;59266;52.608;13.260;2023-02-03T05:45:33;57.08;;;14.40;;
71462;SDS011;59266;52.608;13.260;2023-02-03T05:48:00;56.60;;;14.23;;
71462;SDS011;59266;52.608;13.260;2023-02-03T05:50:33;51.40;;;13.02;;
71462;SDS011;59266;52.608;13.260;2023-02-03T05:53:04;57.15;;;15.05;;
71462;SDS011;59266;52.608;13.260;2023-02-03T05:55:32;51.58;;;13.60;;
71462;SDS011;59266;52.608;13.260;2023-02-03T05:58:00;53.28;;;14.20;;
71462;SDS011;59266;52.608;13.260;2023-02-03T06:00:27;48.00;;;14.23;;
71462;SDS011;59266;52.608;13.260;2023-02-03T06:03:06;51.63;;;14.38;;
71462;SDS011;59266;52.608;13.260;2023-02-03T06:05:33;44.95;;;12.52;;
71462;SDS011;59266;52.608;13.260;2023-02-03T06:08:05;51.53;;;14.40;;
71462;SDS011;59266;52.608;13.260;2023-02-03T06:10:38;42.97;;;13.23;;
71462;SDS011;59266;52.608;13.260;2023-02-03T06:13:12;50.63;;;13.48;;
71462;SDS011;59266;52.608;13.260;2023-02-03T06:15:40;51.75;;;15.43;;
71462;SDS011;59266;52.608;13.260;2023-02-03T06:18:10;48.92;;;14.05;;
71462;SDS011;59266;52.608;13.260;2023-02-03T06:20:37;43.03;;;14.88;;
71462;SDS011;59266;52.608;13.260;2023-02-03T06:23:04;42.20;;;14.02;;
71462;SDS011;59266;52.608;13.260;2023-02-03T06:25:33;48.45;;;13.63;;
71462;SDS011;59266;52.608;13.260;2023-02-03T06:27:59;43.50;;;12.60;;
71462;SDS011;59266;52.608;13.260;2023-02-03T06:30:35;40.28;;;13.52;;
71462;SDS011;59266;52.608;13.260;2023-02-03T06:33:05;48.20;;;13.40;;
71462;SDS011;59266;52.608;13.260;2023-02-03T06:35:32;41.85;;;13.27;;
71462;SDS011;59266;52.608;13.260;2023-02-03T06:38:02;40.80;;;13.63;;
71462;SDS011;59266;52.608;13.260;2023-02-03T06:40:40;40.85;;;13.43;;
71462;SDS011;59266;52.608;13.260;2023-02-03T06:43:06;37.20;;;12.95;;
71462;SDS011;59266;52.608;13.260;2023-02-03T06:45:36;41.35;;;12.15;;
71462;SDS011;59266;52.608;13.260;2023-02-03T06:48:03;41.00;;;13.07;;
71462;SDS011;59266;52.608;13.260;2023-02-03T06:50:30;37.40;;;13.55;;
71462;SDS011;59266;52.608;13.260;2023-02-03T06:52:56;31.88;;;12.55;;
71462;SDS011;59266;52.608;13.260;2023-02-03T06:55:23;32.72;;;12.60;;
71462;SDS011;59266;52.608;13.260;2023-02-03T06:57:50;41.45;;;12.52;;
71462;SDS011;59266;52.608;13.260;2023-02-03T07:00:17;42.97;;;13.02;;
71462;SDS011;59266;52.608;13.260;2023-02-03T07:02:45;30.48;;;11.15;;
71462;SDS011;59266;52.608;13.260;2023-02-03T07:05:23;37.00;;;13.25;;
71462;SDS011;59266;52.608;13.260;2023-02-03T07:07:54;33.42;;;12.73;;
71462;SDS011;59266;52.608;13.260;2023-02-03T07:10:21;30.20;;;11.95;;
71462;SDS011;59266;52.608;13.260;2023-02-03T07:12:53;33.17;;;11.07;;
71462;SDS011;59266;52.608;13.260;2023-02-03T07:15:23;30.70;;;11.18;;
71462;SDS011;59266;52.608;13.260;2023-02-03T07:17:49;29.45;;;10.95;;
71462;SDS011;59266;52.608;13.260;2023-02-03T07:20:20;26.13;;;10.10;;
71462;SDS011;59266;52.608;13.260;2023-02-03T07:22:53;32.55;;;10.82;;
71462;SDS011;59266;52.608;13.260;2023-02-03T07:25:27;26.75;;;10.02;;
71462;SDS011;59266;52.608;13.260;2023-02-03T07:28:15;24.85;;;9.52;;
71462;SDS011;59266;52.608;13.260;2023-02-03T07:30:41;26.67;;;10.32;;
71462;SDS011;59266;52.608;13.260;2023-02-03T07:33:09;25.45;;;9.60;;
71462;SDS011;59266;52.608;13.260;2023-02-03T07:35:52;30.40;;;10.20;;
71462;SDS011;59266;52.608;13.260;2023-02-03T07:38:20;24.50;;;10.15;;
71462;SDS011;59266;52.608;13.260;2023-02-03T07:40:47;25.70;;;10.50;;
71462;SDS011;59266;52.608;13.260;2023-02-03T07:43:16;23.92;;;9.45;;
71462;SDS011;59266;52.608;13.260;2023-02-03T07:45:42;28.17;;;9.77;;
71462;SDS011;59266;52.608;13.260;2023-02-03T07:48:14;21.77;;;7.63;;
71462;SDS011;59266;52.608;13.260;2023-02-03T07:50:41;23.75;;;9.50;;
71462;SDS011;59266;52.608;13.260;2023-02-03T07:53:07;24.90;;;9.70;;
71462;SDS011;59266;52.608;13.260;2023-02-03T07:55:36;21.17;;;9.13;;
71462;SDS011;59266;52.608;13.260;2023-02-03T07:58:03;23.75;;;9.65;;
71462;SDS011;59266;52.608;13.260;2023-02-03T08:00:33;19.88;;;8.85;;
71462;SDS011;59266;52.608;13.260;2023-02-03T08:03:05;23.42;;;8.70;;
71462;SDS011;59266;52.608;13.260;2023-02-03T08:05:41;21.13;;;7.95;;
71462;SDS011;59266;52.608;13.260;2023-02-03T08:08:08;18.92;;;7.78;;
71462;SDS011;59266;52.608;13.260;2023-02-03T08:10:37;19.33;;;7.25;;
71462;SDS011;59266;52.608;13.260;2023-02-03T08:13:04;24.27;;;8.05;;
71462;SDS011;59266;52.608;13.260;2023-02-03T08:15:31;20.45;;;7.75;;
71462;SDS011;59266;52.608;13.260;2023-02-03T08:18:02;19.58;;;7.72;;
71462;SDS011;59266;52.608;13.260;2023-02-03T08:22:56;19.13;;;7.15;;
71462;SDS011;59266;52.608;13.260;2023-02-03T08:25:22;16.75;;;6.68;;
71462;SDS011;59266;52.608;13.260;2023-02-03T08:27:57;15.30;;;6.35;;
71462;SDS011;59266;52.608;13.260;2023-02-03T08:30:24;20.05;;;7.60;;
71462;SDS011;59266;52.608;13.260;2023-02-03T08:32:54;15.63;;;5.95;;
71462;SDS011;59266;52.608;13.260;2023-02-03T08:35:21;17.10;;;6.68;;
71462;SDS011;59266;52.608;13.260;2023-02-03T08:37:49;19.50;;;7.03;;
71462;SDS011;59266;52.608;13.260;2023-02-03T08:40:23;14.80;;;6.88;;
71462;SDS011;59266;52.608;13.260;2023-02-03T08:42:51;18.27;;;5.90;;
71462;SDS011;59266;52.608;13.260;2023-02-03T08:45:17;19.17;;;5.88;;
71462;SDS011;59266;52.608;13.260;2023-02-03T08:47:46;15.10;;;6.13;;
71462;SDS011;59266;52.608;13.260;2023-02-03T08:50:16;11.27;;;5.00;;
71462;SDS011;59266;52.608;13.260;2023-02-03T08:52:44;13.98;;;5.97;;
71462;SDS011;59266;52.608;13.260;2023-02-03T08:55:11;12.32;;;5.03;;
71462;SDS011;59266;52.608;13.260;2023-02-03T08:57:46;16.00;;;5.57;;
71462;SDS011;59266;52.608;13.260;2023-02-03T09:00:18;16.45;;;6.03;;
71462;SDS011;59266;52.608;13.260;2023-02-03T09:02:47;15.15;;;5.47;;
71462;SDS011;59266;52.608;13.260;2023-02-03T09:05:14;15.10;;;5.35;;
71462;SDS011;59266;52.608;13.260;2023-02-03T09:07:43;14.23;;;5.20;;
71462;SDS011;59266;52.608;13.260;2023-02-03T09:10:12;12.02;;;5.00;;
71462;SDS011;59266;52.608;13.260;2023-02-03T09:12:39;11.80;;;4.50;;
71462;SDS011;59266;52.608;13.260;2023-02-03T09:15:06;9.88;;;4.50;;
71462;SDS011;59266;52.608;13.260;2023-02-03T09:17:36;10.35;;;4.10;;
71462;SDS011;59266;52.608;13.260;2023-02-03T09:20:04;13.32;;;4.18;;
71462;SDS011;59266;52.608;13.260;2023-02-03T09:22:32;11.48;;;3.58;;
71462;SDS011;59266;52.608;13.260;2023-02-03T09:24:59;10.70;;;3.97;;
71462;SDS011;59266;52.608;13.260;2023-02-03T09:27:28;9.82;;;3.42;;
71462;SDS011;59266;52.608;13.260;2023-02-03T09:29:59;11.20;;;3.50;;
71462;SDS011;59266;52.608;13.260;2023-02-03T09:32:45;11.32;;;3.60;;
71462;SDS011;59266;52.608;13.260;2023-02-03T09:35:14;9.50;;;3.40;;
71462;SDS011;59266;52.608;13.260;2023-02-03T09:37:42;9.07;;;3.78;;
71462;SDS011;59266;52.608;13.260;2023-02-03T09:40:16;8.57;;;3.10;;
71462;SDS011;59266;52.608;13.260;2023-02-03T09:43:09;7.82;;;2.90;;
71462;SDS011;59266;52.608;13.260;2023-02-03T09:45:42;9.10;;;3.53;;
71462;SDS011;59266;52.608;13.260;2023-02-03T09:48:12;8.65;;;3.22;;
71462;SDS011;59266;52.608;13.260;2023-02-03T09:50:45;9.85;;;3.58;;
71462;SDS011;59266;52.608;13.260;2023-02-03T09:55:53;10.32;;;3.03;;
71462;SDS011;59266;52.608;13.260;2023-02-03T09:58:20;9.85;;;3.25;;
71462;SDS011;59266;52.608;13.260;2023-02-03T10:00:49;8.73;;;2.83;;
71462;SDS011;59266;52.608;13.260;2023-02-03T10:06:52;9.43;;;3.05;;
71462;SDS011;59266;52.608;13.260;2023-02-03T10:15:23;8.18;;;3.10;;
71462;SDS011;59266;52.608;13.260;2023-02-03T10:18:21;7.60;;;2.38;;
71462;SDS011;59266;52.608;13.260;2023-02-03T10:25:00;7.25;;;2.35;;
71462;SDS011;59266;52.608;13.260;2023-02-03T10:28:26;9.40;;;2.53;;
71462;SDS011;59266;52.608;13.260;2023-02-03T10:31:19;6.25;;;1.95;;
71462;SDS011;59266;52.608;13.260;2023-02-03T10:34:00;2.22;;;0.95;;
71462;SDS011;59266;52.608;13.260;2023-02-03T10:42:59;4.10;;;1.08;;
71462;SDS011;59266;52.608;13.260;2023-02-03T10:45:57;6.13;;;1.30;;
71462;SDS011;59266;52.608;13.260;2023-02-03T10:48:38;11.02;;;1.45;;
71462;SDS011;59266;52.608;13.260;2023-02-03T10:51:28;5.38;;;1.23;;
71462;SDS011;59266;52.608;13.260;2023-02-03T10:54:28;6.55;;;1.00;;
71462;SDS011;59266;52.608;13.260;2023-02-03T10:57:12;5.60;;;1.23;;
71462;SDS011;59266;52.608;13.260;2023-02-03T10:59:47;7.20;;;1.17;;
71462;SDS011;59266;52.608;13.260;2023-02-03T11:02:22;9.23;;;1.75;;
71462;SDS011;59266;52.608;13.260;2023-02-03T11:05:08;11.68;;;2.17;;
71462;SDS011;59266;52.608;13.260;2023-02-03T11:07:35;10.82;;;1.10;;
71462;SDS011;59266;52.608;13.260;2023-02-03T11:15:52;11.68;;;1.50;;
71462;SDS011;59266;52.608;13.260;2023-02-03T11:28:29;16.17;;;1.90;;
71462;SDS011;59266;52.608;13.260;2023-02-03T11:35:12;13.80;;;2.35;;
71462;SDS011;59266;52.608;13.260;2023-02-03T11:38:08;13.65;;;2.13;;
71462;SDS011;59266;52.608;13.260;2023-02-03T11:50:30;14.82;;;2.45;;
71462;SDS011;59266;52.608;13.260;2023-02-03T11:56:25;14.07;;;2.22;;
71462;SDS011;59266;52.608;13.260;2023-02-03T11:59:08;15.63;;;2.65;;
71462;SDS011;59266;52.608;13.260;2023-02-03T12:10:50;19.17;;;2.67;;
71462;SDS011;59266;52.608;13.260;2023-02-03T12:13:39;18.63;;;2.17;;
71462;SDS011;59266;52.608;13.260;2023-02-03T12:16:20;15.68;;;2.58;;
71462;SDS011;59266;52.608;13.260;2023-02-03T12:21:45;20.23;;;3.10;;
71462;SDS011;59266;52.608;13.260;2023-02-03T12:24:21;17.73;;;3.22;;
71462;SDS011;59266;52.608;13.260;2023-02-03T12:30:00;16.85;;;2.33;;
71462;SDS011;59266;52.608;13.260;2023-02-03T12:33:33;14.30;;;2.38;;
71462;SDS011;59266;52.608;13.260;2023-02-03T12:38:49;16.95;;;2.33;;
71462;SDS011;59266;52.608;13.260;2023-02-03T12:41:36;22.95;;;2.78;;
71462;SDS011;59266;52.608;13.260;2023-02-03T12:44:20;18.60;;;3.00;;
71462;SDS011;59266;52.608;13.260;2023-02-03T12:49:33;29.33;;;4.18;;
71462;SDS011;59266;52.608;13.260;2023-02-03T12:52:02;13.88;;;1.88;;
71462;SDS011;59266;52.608;13.260;2023-02-03T12:54:47;10.55;;;1.48;;
71462;SDS011;59266;52.608;13.260;2023-02-03T12:57:35;5.00;;;0.75;;
71462;SDS011;59266;52.608;13.260;2023-02-03T13:00:14;7.63;;;1.50;;
71462;SDS011;59266;52.608;13.260;2023-02-03T13:02:51;8.77;;;1.48;;
71462;SDS011;59266;52.608;13.260;2023-02-03T13:06:15;5.88;;;1.00;;
71462;SDS011;59266;52.608;13.260;2023-02-03T13:08:38;10.88;;;1.50;;
71462;SDS011;59266;52.608;13.260;2023-02-03T13:11:12;10.93;;;1.77;;
71462;SDS011;59266;52.608;13.260;2023-02-03T13:13:54;9.48;;;1.45;;
71462;SDS011;59266;52.608;13.260;2023-02-03T13:16:35;11.68;;;1.33;;
71462;SDS011;59266;52.608;13.260;2023-02-03T13:19:08;12.90;;;1.63;;
71462;SDS011;59266;52.608;13.260;2023-02-03T13:21:44;11.68;;;1.42;;
71462;SDS011;59266;52.608;13.260;2023-02-03T13:24:23;15.32;;;2.05;;
71462;SDS011;59266;52.608;13.260;2023-02-03T13:29:56;13.15;;;1.80;;
71462;SDS011;59266;52.608;13.260;2023-02-03T13:38:06;15.75;;;1.90;;
71462;SDS011;59266;52.608;13.260;2023-02-03T13:41:05;11.32;;;1.83;;
71462;SDS011;59266;52.608;13.260;2023-02-03T13:43:45;14.07;;;1.92;;
71462;SDS011;59266;52.608;13.260;2023-02-03T13:46:20;9.27;;;1.80;;
71462;SDS011;59266;52.608;13.260;2023-02-03T13:48:55;9.57;;;2.30;;
71462;SDS011;59266;52.608;13.260;2023-02-03T13:51:42;10.18;;;1.48;;
71462;SDS011;59266;52.608;13.260;2023-02-03T13:54:30;17.15;;;2.45;;
71462;SDS011;59266;52.608;13.260;2023-02-03T13:57:20;15.55;;;2.13;;
71462;SDS011;59266;52.608;13.260;2023-02-03T13:59:59;16.60;;;2.17;;
71462;SDS011;59266;52.608;13.260;2023-02-03T14:02:29;18.88;;;2.58;;
71462;SDS011;59266;52.608;13.260;2023-02-03T14:05:08;24.08;;;2.90;;
71462;SDS011;59266;52.608;13.260;2023-02-03T14:08:40;20.65;;;2.85;;
71462;SDS011;59266;52.608;13.260;2023-02-03T14:16:54;23.60;;;3.33;;
71462;SDS011;59266;52.608;13.260;2023-02-03T14:21:50;18.55;;;2.65;;
71462;SDS011;59266;52.608;13.260;2023-02-03T14:24:19;17.13;;;2.80;;
71462;SDS011;59266;52.608;13.260;2023-02-03T14:27:32;22.20;;;2.72;;
71462;SDS011;59266;52.608;13.260;2023-02-03T14:33:16;21.17;;;2.90;;
71462;SDS011;59266;52.608;13.260;2023-02-03T14:36:01;17.98;;;2.75;;
71462;SDS011;59266;52.608;13.260;2023-02-03T14:38:42;18.77;;;2.90;;
71462;SDS011;59266;52.608;13.260;2023-02-03T14:41:22;21.40;;;2.67;;
71462;SDS011;59266;52.608;13.260;2023-02-03T14:51:08;19.77;;;3.50;;
71462;SDS011;59266;52.608;13.260;2023-02-03T14:57:34;25.20;;;3.38;;
71462;SDS011;59266;52.608;13.260;2023-02-03T15:15:18;20.98;;;2.60;;
71462;SDS011;59266;52.608;13.260;2023-02-03T15:22:26;21.25;;;2.85;;
71462;SDS011;59266;52.608;13.260;2023-02-03T15:24:58;22.20;;;2.58;;
71462;SDS011;59266;52.608;13.260;2023-02-03T15:28:18;20.45;;;3.15;;
71462;SDS011;59266;52.608;13.260;2023-02-03T15:33:51;20.60;;;2.83;;
71462;SDS011;59266;52.608;13.260;2023-02-03T15:36:56;19.50;;;3.30;;
71462;SDS011;59266;52.608;13.260;2023-02-03T15:45:19;19.10;;;2.33;;
71462;SDS011;59266;52.608;13.260;2023-02-03T15:48:13;20.80;;;2.65;;
71462;SDS011;59266;52.608;13.260;2023-02-03T15:53:44;21.10;;;3.25;;
71462;SDS011;59266;52.608;13.260;2023-02-03T15:56:32;22.27;;;2.70;;
71462;SDS011;59266;52.608;13.260;2023-02-03T15:59:04;15.65;;;2.90;;
71462;SDS011;59266;52.608;13.260;2023-02-03T16:01:31;25.90;;;3.15;;
71462;SDS011;59266;52.608;13.260;2023-02-03T16:04:07;19.65;;;2.60;;
71462;SDS011;59266;52.608;13.260;2023-02-03T16:06:36;21.52;;;2.90;;
71462;SDS011;59266;52.608;13.260;2023-02-03T16:09:27;28.30;;;3.35;;
71462;SDS011;59266;52.608;13.260;2023-02-03T16:14:44;14.00;;;2.97;;
71462;SDS011;59266;52.608;13.260;2023-02-03T16:20:02;15.13;;;2.50;;
71462;SDS011;59266;52.608;13.260;2023-02-03T16:23:21;24.88;;;4.15;;
71462;SDS011;59266;52.608;13.260;2023-02-03T16:26:23;28.38;;;3.25;;
71462;SDS011;59266;52.608;13.260;2023-02-03T16:29:42;19.52;;;2.45;;
71462;SDS011;59266;52.608;13.260;2023-02-03T16:32:31;20.85;;;3.20;;
71462;SDS011;59266;52.608;13.260;2023-02-03T16:35:42;31.10;;;3.47;;
71462;SDS011;59266;52.608;13.260;2023-02-03T16:38:33;21.90;;;2.67;;
71462;SDS011;59266;52.608;13.260;2023-02-03T16:44:32;22.80;;;3.22;;
71462;SDS011;59266;52.608;13.260;2023-02-03T16:47:27;26.88;;;3.38;;
71462;SDS011;59266;52.608;13.260;2023-02-03T16:50:18;15.65;;;2.92;;
71462;SDS011;59266;52.608;13.260;2023-02-03T16:53:26;23.23;;;2.88;;
71462;SDS011;59266;52.608;13.260;2023-02-03T16:55:56;25.63;;;3.00;;
71462;SDS011;59266;52.608;13.260;2023-02-03T16:58:29;19.73;;;2.90;;
71462;SDS011;59266;52.608;13.260;2023-02-03T17:00:59;21.92;;;3.35;;
71462;SDS011;59266;52.608;13.260;2023-02-03T17:03:32;16.50;;;2.72;;
71462;SDS011;59266;52.608;13.260;2023-02-03T17:06:04;22.40;;;3.13;;
71462;SDS011;59266;52.608;13.260;2023-02-03T17:08:34;24.55;;;3.22;;
71462;SDS011;59266;52.608;13.260;2023-02-03T17:11:07;21.75;;;3.50;;
71462;SDS011;59266;52.608;13.260;2023-02-03T17:13:46;17.88;;;2.20;;
71462;SDS011;59266;52.608;13.260;2023-02-03T17:16:21;29.40;;;3.60;;
71462;SDS011;59266;52.608;13.260;2023-02-03T17:18:50;27.20;;;3.67;;
71462;SDS011;59266;52.608;13.260;2023-02-03T17:21:24;19.50;;;2.70;;
71462;SDS011;59266;52.608;13.260;2023-02-03T17:23:56;27.55;;;3.22;;
71462;SDS011;59266;52.608;13.260;2023-02-03T17:26:23;21.58;;;3.22;;
71462;SDS011;59266;52.608;13.260;2023-02-03T17:28:50;15.13;;;2.97;;
71462;SDS011;59266;52.608;13.260;2023-02-03T17:31:17;16.33;;;2.45;;
71462;SDS011;59266;52.608;13.260;2023-02-03T17:33:49;23.60;;;3.45;;
71462;SDS011;59266;52.608;13.260;2023-02-03T17:36:16;23.00;;;2.67;;
71462;SDS011;59266;52.608;13.260;2023-02-03T17:38:52;17.63;;;2.60;;
71462;SDS011;59266;52.608;13.260;2023-02-03T17:41:41;27.92;;;3.75;;
71462;SDS011;59266;52.608;13.260;2023-02-03T17:48:22;17.95;;;3.05;;
71462;SDS011;59266;52.608;13.260;2023-02-03T17:51:24;20.60;;;2.55;;
71462;SDS011;59266;52.608;13.260;2023-02-03T17:54:12;27.48;;;3.20;;
71462;SDS011;59266;52.608;13.260;2023-02-03T17:57:06;21.70;;;3.20;;
71462;SDS011;59266;52.608;13.260;2023-02-03T17:59:57;15.65;;;2.03;;
71462;SDS011;59266;52.608;13.260;2023-02-03T18:03:02;19.23;;;2.60;;
71462;SDS011;59266;52.608;13.260;2023-02-03T18:05:28;23.42;;;2.67;;
71462;SDS011;59266;52.608;13.260;2023-02-03T18:07:58;23.42;;;2.97;;
71462;SDS011;59266;52.608;13.260;2023-02-03T18:10:45;21.35;;;2.85;;
71462;SDS011;59266;52.608;13.260;2023-02-03T18:13:21;13.50;;;2.42;;
71462;SDS011;59266;52.608;13.260;2023-02-03T18:16:16;18.25;;;3.30;;
71462;SDS011;59266;52.608;13.260;2023-02-03T18:19:10;23.85;;;3.25;;
71462;SDS011;59266;52.608;13.260;2023-02-03T18:21:45;18.52;;;2.58;;
71462;SDS011;59266;52.608;13.260;2023-02-03T18:24:17;17.08;;;2.63;;